sensor_id;sensor_type;location;lat;lon;timestamp;pressure;altitude;pressure_sealevel;temperature;humidity
55044;BME280;54902;50.420;18.854;2023-04-07T00:00:16;101327.19;;;2.05;76.25
55044;BME280;54902;50.420;18.854;2023-04-07T00:00:48;101330.80;;;2.04;76.21
55044;BME280;54902;50.420;18.854;2023-04-07T00:01:18;101330.80;;;2.04;76.19
55044;BME280;54902;50.420;18.854;2023-04-07T00:01:51;101332.58;;;2.05;76.19
55044;BME280;54902;50.420;18.854;2023-04-07T00:02:22;101331.68;;;2.05;76.18
55044;BME280;54902;50.420;18.854;2023-04-07T00:02:53;101324.48;;;2.05;76.27
55044;BME280;54902;50.420;18.854;2023-04-07T00:03:24;101328.05;;;2.06;76.30
55044;BME280;54902;50.420;18.854;2023-04-07T00:03:55;101327.19;;;2.05;76.33
55044;BME280;54902;50.420;18.854;2023-04-07T00:04:26;101334.34;;;2.06;76.34
55044;BME280;54902;50.420;18.854;2023-04-07T00:04:57;101329.81;;;2.07;76.40
55044;BME280;54902;50.420;18.854;2023-04-07T00:05:28;101329.81;;;2.07;76.47
55044;BME280;54902;50.420;18.854;2023-04-07T00:05:59;101327.11;;;2.07;76.52
55044;BME280;54902;50.420;18.854;2023-04-07T00:06:30;101326.26;;;2.06;76.57
55044;BME280;54902;50.420;18.854;2023-04-07T00:07:02;101328.95;;;2.06;76.56
55044;BME280;54902;50.420;18.854;2023-04-07T00:07:33;101328.05;;;2.06;76.64
55044;BME280;54902;50.420;18.854;2023-04-07T00:08:04;101329.81;;;2.07;76.74
55044;BME280;54902;50.420;18.854;2023-04-07T00:08:35;101326.26;;;2.06;76.75
55044;BME280;54902;50.420;18.854;2023-04-07T00:09:06;101317.27;;;2.06;76.67
55044;BME280;54902;50.420;18.854;2023-04-07T00:09:37;101325.35;;;2.06;76.59
55044;BME280;54902;50.420;18.854;2023-04-07T00:10:08;101328.05;;;2.06;76.52
55044;BME280;54902;50.420;18.854;2023-04-07T00:10:40;101331.68;;;2.05;76.49
55044;BME280;54902;50.420;18.854;2023-04-07T00:11:11;101321.80;;;2.05;76.45
55044;BME280;54902;50.420;18.854;2023-04-07T00:11:42;101320.04;;;2.04;76.45
55044;BME280;54902;50.420;18.854;2023-04-07T00:12:13;101325.41;;;2.04;76.41
55044;BME280;54902;50.420;18.854;2023-04-07T00:12:44;101318.27;;;2.03;76.37
55044;BME280;54902;50.420;18.854;2023-04-07T00:13:15;101326.35;;;2.03;76.37
55044;BME280;54902;50.420;18.854;2023-04-07T00:13:46;101325.41;;;2.04;76.37
55044;BME280;54902;50.420;18.854;2023-04-07T00:14:16;101325.41;;;2.04;76.39
55044;BME280;54902;50.420;18.854;2023-04-07T00:14:47;101320.04;;;2.04;76.37
55044;BME280;54902;50.420;18.854;2023-04-07T00:15:18;101325.41;;;2.04;76.37
55044;BME280;54902;50.420;18.854;2023-04-07T00:15:50;101320.97;;;2.03;76.36
55044;BME280;54902;50.420;18.854;2023-04-07T00:16:21;101323.66;;;2.03;76.32
55044;BME280;54902;50.420;18.854;2023-04-07T00:16:52;101319.18;;;2.04;76.56
55044;BME280;54902;50.420;18.854;2023-04-07T00:17:23;101326.35;;;2.03;76.55
55044;BME280;54902;50.420;18.854;2023-04-07T00:17:54;101319.18;;;2.04;76.57
55044;BME280;54902;50.420;18.854;2023-04-07T00:18:25;101314.64;;;2.04;76.68
55044;BME280;54902;50.420;18.854;2023-04-07T00:18:56;101312.88;;;2.03;76.79
55044;BME280;54902;50.420;18.854;2023-04-07T00:19:27;101313.79;;;2.04;76.93
55044;BME280;54902;50.420;18.854;2023-04-07T00:19:58;101318.27;;;2.03;76.98
55044;BME280;54902;50.420;18.854;2023-04-07T00:20:29;101313.79;;;2.04;76.90
55044;BME280;54902;50.420;18.854;2023-04-07T00:21:00;101313.79;;;2.04;77.08
55044;BME280;54902;50.420;18.854;2023-04-07T00:21:31;101314.64;;;2.04;77.25
55044;BME280;54902;50.420;18.854;2023-04-07T00:22:02;101311.88;;;2.06;77.24
55044;BME280;54902;50.420;18.854;2023-04-07T00:22:33;101312.88;;;2.03;77.27
55044;BME280;54902;50.420;18.854;2023-04-07T00:23:03;101310.13;;;2.05;77.33
55044;BME280;54902;50.420;18.854;2023-04-07T00:23:34;101312.95;;;2.02;77.22
55044;BME280;54902;50.420;18.854;2023-04-07T00:24:06;101310.19;;;2.03;77.21
55044;BME280;54902;50.420;18.854;2023-04-07T00:24:37;101311.13;;;2.02;77.26
55044;BME280;54902;50.420;18.854;2023-04-07T00:25:09;101313.82;;;2.02;77.19
55044;BME280;54902;50.420;18.854;2023-04-07T00:25:40;101308.43;;;2.02;77.25
55044;BME280;54902;50.420;18.854;2023-04-07T00:26:11;101304.87;;;2.02;77.39
55044;BME280;54902;50.420;18.854;2023-04-07T00:26:42;101312.95;;;2.02;77.51
55044;BME280;54902;50.420;18.854;2023-04-07T00:27:13;101313.82;;;2.02;77.60
55044;BME280;54902;50.420;18.854;2023-04-07T00:27:44;101309.40;;;2.01;77.66
55044;BME280;54902;50.420;18.854;2023-04-07T00:28:15;101304.94;;;2.00;77.58
55044;BME280;54902;50.420;18.854;2023-04-07T00:28:46;101310.33;;;2.00;77.53
55044;BME280;54902;50.420;18.854;2023-04-07T00:29:17;101304.94;;;2.00;77.56
55044;BME280;54902;50.420;18.854;2023-04-07T00:29:48;101304.94;;;2.00;77.56
55044;BME280;54902;50.420;18.854;2023-04-07T00:30:19;101310.39;;;1.99;77.48
55044;BME280;54902;50.420;18.854;2023-04-07T00:30:50;101312.19;;;1.98;77.40
55044;BME280;54902;50.420;18.854;2023-04-07T00:31:20;101303.18;;;1.99;77.31
55044;BME280;54902;50.420;18.854;2023-04-07T00:31:51;101307.77;;;1.97;77.25
55044;BME280;54902;50.420;18.854;2023-04-07T00:32:22;101297.87;;;1.98;77.18
55044;BME280;54902;50.420;18.854;2023-04-07T00:32:53;101302.38;;;1.97;77.12
55044;BME280;54902;50.420;18.854;2023-04-07T00:33:24;101302.38;;;1.97;77.07
55044;BME280;54902;50.420;18.854;2023-04-07T00:33:56;101303.24;;;1.98;77.03
55044;BME280;54902;50.420;18.854;2023-04-07T00:34:27;101297.92;;;1.96;77.00
55044;BME280;54902;50.420;18.854;2023-04-07T00:34:58;101300.63;;;1.96;77.04
55044;BME280;54902;50.420;18.854;2023-04-07T00:35:29;101306.02;;;1.96;77.03
55044;BME280;54902;50.420;18.854;2023-04-07T00:36:00;101299.75;;;1.96;76.99
55044;BME280;54902;50.420;18.854;2023-04-07T00:36:31;101307.83;;;1.96;76.96
55044;BME280;54902;50.420;18.854;2023-04-07T00:37:02;101298.87;;;1.95;76.99
55044;BME280;54902;50.420;18.854;2023-04-07T00:37:35;101300.63;;;1.96;76.96
55044;BME280;54902;50.420;18.854;2023-04-07T00:38:06;101303.31;;;1.96;77.03
55044;BME280;54902;50.420;18.854;2023-04-07T00:38:37;101306.02;;;1.96;77.17
55044;BME280;54902;50.420;18.854;2023-04-07T00:39:08;101300.63;;;1.96;77.19
55044;BME280;54902;50.420;18.854;2023-04-07T00:39:39;101295.23;;;1.96;77.18
55044;BME280;54902;50.420;18.854;2023-04-07T00:40:10;101301.48;;;1.97;77.14
55044;BME280;54902;50.420;18.854;2023-04-07T00:40:41;101303.31;;;1.96;77.16
55044;BME280;54902;50.420;18.854;2023-04-07T00:41:12;101296.99;;;1.97;77.16
55044;BME280;54902;50.420;18.854;2023-04-07T00:41:44;101301.48;;;1.97;77.11
55044;BME280;54902;50.420;18.854;2023-04-07T00:42:15;101298.78;;;1.97;77.05
55044;BME280;54902;50.420;18.854;2023-04-07T00:42:46;101297.92;;;1.96;77.05
55044;BME280;54902;50.420;18.854;2023-04-07T00:43:17;101302.38;;;1.97;77.07
55044;BME280;54902;50.420;18.854;2023-04-07T00:43:50;101296.99;;;1.97;77.16
55044;BME280;54902;50.420;18.854;2023-04-07T00:44:21;101307.77;;;1.97;77.13
55044;BME280;54902;50.420;18.854;2023-04-07T00:44:52;101292.48;;;1.98;77.11
55044;BME280;54902;50.420;18.854;2023-04-07T00:45:23;101299.68;;;1.97;77.09
55044;BME280;54902;50.420;18.854;2023-04-07T00:45:54;101296.99;;;1.97;77.04
55044;BME280;54902;50.420;18.854;2023-04-07T00:46:25;101300.55;;;1.98;77.07
55044;BME280;54902;50.420;18.854;2023-04-07T00:46:57;101295.23;;;1.96;77.06
55044;BME280;54902;50.420;18.854;2023-04-07T00:47:29;101294.30;;;1.97;77.05
55044;BME280;54902;50.420;18.854;2023-04-07T00:48:00;101304.11;;;1.98;77.06
55044;BME280;54902;50.420;18.854;2023-04-07T00:48:31;101298.72;;;1.98;77.08
55044;BME280;54902;50.420;18.854;2023-04-07T00:49:02;101297.87;;;1.98;77.05
55044;BME280;54902;50.420;18.854;2023-04-07T00:49:33;101293.33;;;1.98;77.11
55044;BME280;54902;50.420;18.854;2023-04-07T00:50:04;101287.95;;;1.98;77.25
55044;BME280;54902;50.420;18.854;2023-04-07T00:50:35;101293.33;;;1.98;77.35
55044;BME280;54902;50.420;18.854;2023-04-07T00:51:06;101298.72;;;1.98;77.35
55044;BME280;54902;50.420;18.854;2023-04-07T00:51:37;101293.33;;;1.98;77.26
55044;BME280;54902;50.420;18.854;2023-04-07T00:52:09;101293.33;;;1.98;77.21
55044;BME280;54902;50.420;18.854;2023-04-07T00:52:44;101293.33;;;1.98;77.13
55044;BME280;54902;50.420;18.854;2023-04-07T00:53:15;101296.02;;;1.98;77.13
55044;BME280;54902;50.420;18.854;2023-04-07T00:53:47;101296.02;;;1.98;77.16
55044;BME280;54902;50.420;18.854;2023-04-07T00:54:18;101300.48;;;1.99;77.27
55044;BME280;54902;50.420;18.854;2023-04-07T00:54:50;101302.31;;;1.99;77.28
55044;BME280;54902;50.420;18.854;2023-04-07T00:55:21;101303.24;;;1.98;77.29
55044;BME280;54902;50.420;18.854;2023-04-07T00:55:52;101298.72;;;1.98;77.27
55044;BME280;54902;50.420;18.854;2023-04-07T00:56:23;101296.99;;;1.97;77.23
55044;BME280;54902;50.420;18.854;2023-04-07T00:56:54;101292.48;;;1.98;77.25
55044;BME280;54902;50.420;18.854;2023-04-07T00:57:25;101302.38;;;1.97;77.33
55044;BME280;54902;50.420;18.854;2023-04-07T00:57:56;101297.87;;;1.98;77.33
55044;BME280;54902;50.420;18.854;2023-04-07T00:58:27;101299.68;;;1.97;77.33
55044;BME280;54902;50.420;18.854;2023-04-07T00:58:59;101291.60;;;1.97;77.34
55044;BME280;54902;50.420;18.854;2023-04-07T00:59:30;101296.99;;;1.97;77.33
55044;BME280;54902;50.420;18.854;2023-04-07T01:00:02;101295.23;;;1.96;77.29
55044;BME280;54902;50.420;18.854;2023-04-07T01:01:22;101294.30;;;1.97;77.34
55044;BME280;54902;50.420;18.854;2023-04-07T01:02:03;101298.87;;;1.95;77.36
55044;BME280;54902;50.420;18.854;2023-04-07T01:02:42;101290.70;;;1.97;77.39
55044;BME280;54902;50.420;18.854;2023-04-07T01:04:08;101295.23;;;1.96;77.46
55044;BME280;54902;50.420;18.854;2023-04-07T01:04:50;101288.09;;;1.95;77.47
55044;BME280;54902;50.420;18.854;2023-04-07T01:05:52;101286.29;;;1.96;77.49
55044;BME280;54902;50.420;18.854;2023-04-07T01:06:07;101295.23;;;1.96;77.44
55044;BME280;54902;50.420;18.854;2023-04-07T01:06:43;101285.39;;;1.95;77.47
55044;BME280;54902;50.420;18.854;2023-04-07T01:07:22;101280.01;;;1.95;77.46
55044;BME280;54902;50.420;18.854;2023-04-07T01:09:29;101280.93;;;1.94;77.72
55044;BME280;54902;50.420;18.854;2023-04-07T01:10:09;101281.82;;;1.95;77.83
55044;BME280;54902;50.420;18.854;2023-04-07T01:10:50;101282.77;;;1.94;77.83
55044;BME280;54902;50.420;18.854;2023-04-07T01:11:24;101280.06;;;1.94;77.87
55044;BME280;54902;50.420;18.854;2023-04-07T01:13:30;101280.06;;;1.94;77.95
55044;BME280;54902;50.420;18.854;2023-04-07T01:14:03;101271.19;;;1.92;78.06
55044;BME280;54902;50.420;18.854;2023-04-07T01:14:49;101277.45;;;1.92;78.02
55044;BME280;54902;50.420;18.854;2023-04-07T01:15:20;101264.05;;;1.91;77.99
55044;BME280;54902;50.420;18.854;2023-04-07T01:15:53;101270.29;;;1.91;77.88
55044;BME280;54902;50.420;18.854;2023-04-07T01:16:31;101268.53;;;1.90;77.90
55044;BME280;54902;50.420;18.854;2023-04-07T01:17:02;101272.13;;;1.91;77.88
55044;BME280;54902;50.420;18.854;2023-04-07T01:17:41;101269.50;;;1.89;77.91
55044;BME280;54902;50.420;18.854;2023-04-07T01:18:18;101273.92;;;1.90;77.93
55044;BME280;54902;50.420;18.854;2023-04-07T01:18:55;101272.20;;;1.89;77.95
55044;BME280;54902;50.420;18.854;2023-04-07T01:19:34;101266.80;;;1.89;78.12
55044;BME280;54902;50.420;18.854;2023-04-07T01:20:06;101266.80;;;1.89;78.30
55044;BME280;54902;50.420;18.854;2023-04-07T01:20:42;101267.67;;;1.90;78.23
55044;BME280;54902;50.420;18.854;2023-04-07T01:21:17;101274.89;;;1.89;78.25
55044;BME280;54902;50.420;18.854;2023-04-07T01:21:52;101265.90;;;1.89;78.14
55044;BME280;54902;50.420;18.854;2023-04-07T01:22:31;101265.90;;;1.89;78.14
55044;BME280;54902;50.420;18.854;2023-04-07T01:23:05;101261.45;;;1.88;78.22
55044;BME280;54902;50.420;18.854;2023-04-07T01:25:57;101265.05;;;1.88;78.12
55044;BME280;54902;50.420;18.854;2023-04-07T01:26:30;101262.41;;;1.87;78.04
55044;BME280;54902;50.420;18.854;2023-04-07T01:28:26;101265.98;;;1.87;78.01
55044;BME280;54902;50.420;18.854;2023-04-07T01:28:40;101272.29;;;1.86;77.98
55044;BME280;54902;50.420;18.854;2023-04-07T01:30:02;101266.90;;;1.86;78.03
55044;BME280;54902;50.420;18.854;2023-04-07T01:30:38;101266.90;;;1.86;78.00
55044;BME280;54902;50.420;18.854;2023-04-07T01:31:11;101268.74;;;1.86;78.05
55044;BME280;54902;50.420;18.854;2023-04-07T01:31:45;101269.60;;;1.86;78.09
55044;BME280;54902;50.420;18.854;2023-04-07T01:32:19;101266.90;;;1.86;78.11
55044;BME280;54902;50.420;18.854;2023-04-07T01:32:51;101265.17;;;1.85;78.24
55044;BME280;54902;50.420;18.854;2023-04-07T01:33:24;101265.17;;;1.85;78.44
55044;BME280;54902;50.420;18.854;2023-04-07T01:33:58;101266.90;;;1.86;78.46
55044;BME280;54902;50.420;18.854;2023-04-07T01:34:31;101267.80;;;1.87;78.45
55044;BME280;54902;50.420;18.854;2023-04-07T01:35:04;101268.67;;;1.87;78.46
55044;BME280;54902;50.420;18.854;2023-04-07T01:35:40;101274.05;;;1.87;78.47
55044;BME280;54902;50.420;18.854;2023-04-07T01:36:14;101265.11;;;1.87;78.45
55044;BME280;54902;50.420;18.854;2023-04-07T01:36:47;101263.28;;;1.87;78.46
55044;BME280;54902;50.420;18.854;2023-04-07T01:37:20;101274.92;;;1.88;78.43
55044;BME280;54902;50.420;18.854;2023-04-07T01:37:53;101269.60;;;1.86;78.40
55044;BME280;54902;50.420;18.854;2023-04-07T01:38:25;101270.44;;;1.88;78.35
55044;BME280;54902;50.420;18.854;2023-04-07T01:38:58;101268.74;;;1.86;78.37
55044;BME280;54902;50.420;18.854;2023-04-07T01:39:29;101262.41;;;1.87;78.41
55044;BME280;54902;50.420;18.854;2023-04-07T01:40:02;101257.02;;;1.87;78.41
55044;BME280;54902;50.420;18.854;2023-04-07T01:40:35;101266.90;;;1.86;78.39
55044;BME280;54902;50.420;18.854;2023-04-07T01:41:09;101262.48;;;1.85;78.44
55044;BME280;54902;50.420;18.854;2023-04-07T01:41:41;101264.21;;;1.86;78.52
55044;BME280;54902;50.420;18.854;2023-04-07T01:42:14;101257.10;;;1.85;78.51
55044;BME280;54902;50.420;18.854;2023-04-07T01:42:47;101266.90;;;1.86;78.61
55044;BME280;54902;50.420;18.854;2023-04-07T01:43:21;101266.05;;;1.86;78.63
55044;BME280;54902;50.420;18.854;2023-04-07T01:43:53;101264.21;;;1.86;78.67
55044;BME280;54902;50.420;18.854;2023-04-07T01:44:25;101268.74;;;1.86;78.65
55044;BME280;54902;50.420;18.854;2023-04-07T01:44:58;101266.05;;;1.86;78.58
55044;BME280;54902;50.420;18.854;2023-04-07T01:45:33;101267.88;;;1.85;78.74
55044;BME280;54902;50.420;18.854;2023-04-07T01:46:06;101259.80;;;1.85;78.78
55044;BME280;54902;50.420;18.854;2023-04-07T01:46:37;101261.51;;;1.86;78.79
55044;BME280;54902;50.420;18.854;2023-04-07T01:47:08;101266.05;;;1.86;78.77
55044;BME280;54902;50.420;18.854;2023-04-07T01:47:40;101258.02;;;1.84;78.81
55044;BME280;54902;50.420;18.854;2023-04-07T01:48:12;101259.80;;;1.85;78.77
55044;BME280;54902;50.420;18.854;2023-04-07T01:48:43;101265.17;;;1.85;78.68
55044;BME280;54902;50.420;18.854;2023-04-07T01:49:15;101260.73;;;1.84;78.62
55044;BME280;54902;50.420;18.854;2023-04-07T01:49:47;101263.41;;;1.84;78.56
55044;BME280;54902;50.420;18.854;2023-04-07T01:50:20;101258.90;;;1.85;78.54
55044;BME280;54902;50.420;18.854;2023-04-07T01:50:52;101257.10;;;1.85;78.57
55044;BME280;54902;50.420;18.854;2023-04-07T01:51:24;101257.10;;;1.85;78.75
55044;BME280;54902;50.420;18.854;2023-04-07T01:51:57;101258.02;;;1.84;78.76
55044;BME280;54902;50.420;18.854;2023-04-07T01:52:29;101262.48;;;1.85;78.85
55044;BME280;54902;50.420;18.854;2023-04-07T01:53:02;101258.90;;;1.85;78.85
55044;BME280;54902;50.420;18.854;2023-04-07T01:53:34;101255.34;;;1.84;78.82
55044;BME280;54902;50.420;18.854;2023-04-07T01:54:08;101252.64;;;1.84;78.86
55044;BME280;54902;50.420;18.854;2023-04-07T01:54:39;101252.64;;;1.84;78.79
55044;BME280;54902;50.420;18.854;2023-04-07T01:55:10;101252.64;;;1.84;78.76
55044;BME280;54902;50.420;18.854;2023-04-07T01:55:42;101246.36;;;1.84;78.68
55044;BME280;54902;50.420;18.854;2023-04-07T01:56:14;101252.64;;;1.84;78.61
55044;BME280;54902;50.420;18.854;2023-04-07T01:56:46;101245.49;;;1.83;78.67
55044;BME280;54902;50.420;18.854;2023-04-07T01:57:17;101252.64;;;1.84;78.68
55044;BME280;54902;50.420;18.854;2023-04-07T01:57:47;101245.63;;;1.80;78.73
55044;BME280;54902;50.420;18.854;2023-04-07T01:58:18;101241.95;;;1.83;78.88
55044;BME280;54902;50.420;18.854;2023-04-07T01:58:50;101245.49;;;1.83;78.94
55044;BME280;54902;50.420;18.854;2023-04-07T01:59:21;101243.67;;;1.84;78.94
55044;BME280;54902;50.420;18.854;2023-04-07T01:59:52;101252.64;;;1.84;78.97
55044;BME280;54902;50.420;18.854;2023-04-07T02:00:23;101248.19;;;1.83;78.99
55044;BME280;54902;50.420;18.854;2023-04-07T02:00:54;101248.19;;;1.83;78.98
55044;BME280;54902;50.420;18.854;2023-04-07T02:01:25;101250.88;;;1.83;78.95
55044;BME280;54902;50.420;18.854;2023-04-07T02:01:56;101258.02;;;1.84;79.07
55044;BME280;54902;50.420;18.854;2023-04-07T02:02:27;101258.02;;;1.84;79.11
55044;BME280;54902;50.420;18.854;2023-04-07T02:04:34;101252.64;;;1.84;79.02
55044;BME280;54902;50.420;18.854;2023-04-07T02:05:12;101258.97;;;1.83;79.02
55044;BME280;54902;50.420;18.854;2023-04-07T02:05:43;101251.82;;;1.82;78.99
55044;BME280;54902;50.420;18.854;2023-04-07T02:06:19;101259.02;;;1.82;78.93
55044;BME280;54902;50.420;18.854;2023-04-07T02:06:58;101251.82;;;1.82;78.88
55044;BME280;54902;50.420;18.854;2023-04-07T02:07:40;101253.58;;;1.83;78.96
55044;BME280;54902;50.420;18.854;2023-04-07T02:08:15;101253.58;;;1.83;78.96
55044;BME280;54902;50.420;18.854;2023-04-07T02:08:53;101255.41;;;1.83;78.94
55044;BME280;54902;50.420;18.854;2023-04-07T02:09:30;101257.13;;;1.84;78.95
55044;BME280;54902;50.420;18.854;2023-04-07T02:10:02;101245.49;;;1.83;79.09
55044;BME280;54902;50.420;18.854;2023-04-07T02:10:37;101252.71;;;1.83;79.14
55044;BME280;54902;50.420;18.854;2023-04-07T02:11:10;101250.02;;;1.83;79.18
55044;BME280;54902;50.420;18.854;2023-04-07T02:11:44;101248.19;;;1.83;79.23
55044;BME280;54902;50.420;18.854;2023-04-07T02:12:16;101253.58;;;1.83;79.24
55044;BME280;54902;50.420;18.854;2023-04-07T02:12:47;101248.19;;;1.83;79.21
55044;BME280;54902;50.420;18.854;2023-04-07T02:13:19;101250.88;;;1.83;79.20
55044;BME280;54902;50.420;18.854;2023-04-07T02:13:53;101244.63;;;1.83;79.20
55044;BME280;54902;50.420;18.854;2023-04-07T02:14:24;101254.51;;;1.82;79.20
55044;BME280;54902;50.420;18.854;2023-04-07T02:14:57;101247.34;;;1.83;79.22
55044;BME280;54902;50.420;18.854;2023-04-07T02:15:29;101254.51;;;1.82;79.18
55044;BME280;54902;50.420;18.854;2023-04-07T02:16:01;101249.13;;;1.82;79.11
55044;BME280;54902;50.420;18.854;2023-04-07T02:16:34;101252.71;;;1.83;79.17
55044;BME280;54902;50.420;18.854;2023-04-07T02:17:05;101249.13;;;1.82;79.25
55044;BME280;54902;50.420;18.854;2023-04-07T02:17:39;101238.35;;;1.82;79.33
55044;BME280;54902;50.420;18.854;2023-04-07T02:18:12;101248.19;;;1.83;79.31
55044;BME280;54902;50.420;18.854;2023-04-07T02:18:45;101249.13;;;1.82;79.31
55044;BME280;54902;50.420;18.854;2023-04-07T02:19:17;101242.01;;;1.81;79.43
55044;BME280;54902;50.420;18.854;2023-04-07T02:19:50;101243.73;;;1.82;79.54
55044;BME280;54902;50.420;18.854;2023-04-07T02:20:22;101244.63;;;1.83;79.66
55044;BME280;54902;50.420;18.854;2023-04-07T02:20:54;101257.13;;;1.84;79.80
55044;BME280;54902;50.420;18.854;2023-04-07T02:21:26;101250.02;;;1.83;79.81
55044;BME280;54902;50.420;18.854;2023-04-07T02:22:04;101252.71;;;1.83;79.79
55044;BME280;54902;50.420;18.854;2023-04-07T02:22:37;101251.82;;;1.82;79.76
55044;BME280;54902;50.420;18.854;2023-04-07T02:23:09;101251.75;;;1.84;79.81
55044;BME280;54902;50.420;18.854;2023-04-07T02:23:40;101253.64;;;1.82;79.79
55044;BME280;54902;50.420;18.854;2023-04-07T02:24:11;101250.95;;;1.82;79.76
55044;BME280;54902;50.420;18.854;2023-04-07T02:24:42;101245.56;;;1.82;79.75
55044;BME280;54902;50.420;18.854;2023-04-07T02:25:20;101249.13;;;1.82;79.75
55044;BME280;54902;50.420;18.854;2023-04-07T02:25:55;101254.51;;;1.82;79.80
55044;BME280;54902;50.420;18.854;2023-04-07T02:26:26;101246.43;;;1.82;79.85
55044;BME280;54902;50.420;18.854;2023-04-07T02:26:57;101256.27;;;1.83;79.95
55044;BME280;54902;50.420;18.854;2023-04-07T02:27:30;101249.13;;;1.82;80.13
55044;BME280;54902;50.420;18.854;2023-04-07T02:28:01;101250.02;;;1.83;80.14
55044;BME280;54902;50.420;18.854;2023-04-07T02:28:32;101254.51;;;1.82;80.12
55044;BME280;54902;50.420;18.854;2023-04-07T02:29:04;101249.13;;;1.82;80.06
55044;BME280;54902;50.420;18.854;2023-04-07T02:29:35;101248.26;;;1.82;80.03
55044;BME280;54902;50.420;18.854;2023-04-07T02:30:07;101243.80;;;1.81;79.97
55044;BME280;54902;50.420;18.854;2023-04-07T02:30:38;101258.16;;;1.81;79.88
55044;BME280;54902;50.420;18.854;2023-04-07T02:31:09;101252.78;;;1.81;79.90
55044;BME280;54902;50.420;18.854;2023-04-07T02:31:43;101255.47;;;1.81;79.84
55044;BME280;54902;50.420;18.854;2023-04-07T02:32:14;101255.47;;;1.81;79.83
55044;BME280;54902;50.420;18.854;2023-04-07T02:32:47;101251.02;;;1.80;79.85
55044;BME280;54902;50.420;18.854;2023-04-07T02:33:17;101253.71;;;1.80;79.93
55044;BME280;54902;50.420;18.854;2023-04-07T02:33:48;101258.16;;;1.81;79.87
55044;BME280;54902;50.420;18.854;2023-04-07T02:34:19;101253.71;;;1.80;80.02
55044;BME280;54902;50.420;18.854;2023-04-07T02:34:50;101261.79;;;1.80;80.14
55044;BME280;54902;50.420;18.854;2023-04-07T02:35:22;101245.56;;;1.82;80.14
55044;BME280;54902;50.420;18.854;2023-04-07T02:35:53;101251.02;;;1.80;80.11
55044;BME280;54902;50.420;18.854;2023-04-07T02:36:24;101251.88;;;1.81;80.11
55044;BME280;54902;50.420;18.854;2023-04-07T02:36:56;101252.82;;;1.80;80.10
55044;BME280;54902;50.420;18.854;2023-04-07T02:37:27;101256.41;;;1.80;80.06
55044;BME280;54902;50.420;18.854;2023-04-07T02:37:58;101255.51;;;1.80;80.10
55044;BME280;54902;50.420;18.854;2023-04-07T02:38:30;101250.13;;;1.80;80.20
55044;BME280;54902;50.420;18.854;2023-04-07T02:39:01;101267.17;;;1.80;80.19
55044;BME280;54902;50.420;18.854;2023-04-07T02:39:33;101256.41;;;1.80;80.15
55044;BME280;54902;50.420;18.854;2023-04-07T02:40:05;101253.78;;;1.79;80.15
55044;BME280;54902;50.420;18.854;2023-04-07T02:40:36;101257.34;;;1.79;80.09
55044;BME280;54902;50.420;18.854;2023-04-07T02:41:07;101260.90;;;1.80;80.11
55044;BME280;54902;50.420;18.854;2023-04-07T02:41:38;101263.66;;;1.78;80.06
55044;BME280;54902;50.420;18.854;2023-04-07T02:42:09;101254.64;;;1.79;80.03
55044;BME280;54902;50.420;18.854;2023-04-07T02:42:40;101264.55;;;1.79;80.05
55044;BME280;54902;50.420;18.854;2023-04-07T02:43:11;101259.16;;;1.79;80.01
55044;BME280;54902;50.420;18.854;2023-04-07T02:43:42;101253.78;;;1.79;79.97
55044;BME280;54902;50.420;18.854;2023-04-07T02:44:13;101258.27;;;1.78;79.99
55044;BME280;54902;50.420;18.854;2023-04-07T02:44:44;101252.02;;;1.78;80.01
55044;BME280;54902;50.420;18.854;2023-04-07T02:45:15;101253.78;;;1.79;80.06
55044;BME280;54902;50.420;18.854;2023-04-07T02:45:46;101255.58;;;1.78;80.05
55044;BME280;54902;50.420;18.854;2023-04-07T02:46:17;101252.88;;;1.78;80.05
55044;BME280;54902;50.420;18.854;2023-04-07T02:46:47;101264.55;;;1.79;80.05
55044;BME280;54902;50.420;18.854;2023-04-07T02:47:18;101254.64;;;1.79;79.98
55044;BME280;54902;50.420;18.854;2023-04-07T02:47:50;101247.49;;;1.78;79.94
55044;BME280;54902;50.420;18.854;2023-04-07T02:48:21;101257.40;;;1.78;79.92
55044;BME280;54902;50.420;18.854;2023-04-07T02:48:52;101255.58;;;1.78;79.86
55044;BME280;54902;50.420;18.854;2023-04-07T02:49:22;101262.79;;;1.78;79.89
55044;BME280;54902;50.420;18.854;2023-04-07T02:49:53;101252.02;;;1.78;79.88
55044;BME280;54902;50.420;18.854;2023-04-07T02:50:24;101250.19;;;1.78;79.88
55044;BME280;54902;50.420;18.854;2023-04-07T02:50:55;101252.88;;;1.78;79.88
55044;BME280;54902;50.420;18.854;2023-04-07T02:51:26;101254.70;;;1.78;79.87
55044;BME280;54902;50.420;18.854;2023-04-07T02:51:58;101248.56;;;1.74;79.91
55044;BME280;54902;50.420;18.854;2023-04-07T02:52:29;101251.09;;;1.79;79.86
55044;BME280;54902;50.420;18.854;2023-04-07T02:53:00;101252.02;;;1.78;79.84
55044;BME280;54902;50.420;18.854;2023-04-07T02:53:31;101257.40;;;1.78;79.91
55044;BME280;54902;50.420;18.854;2023-04-07T02:54:02;101249.25;;;1.79;79.97
55044;BME280;54902;50.420;18.854;2023-04-07T02:54:33;101252.88;;;1.78;79.96
55044;BME280;54902;50.420;18.854;2023-04-07T02:55:04;101249.32;;;1.78;79.94
55044;BME280;54902;50.420;18.854;2023-04-07T02:55:36;101249.25;;;1.79;79.94
55044;BME280;54902;50.420;18.854;2023-04-07T02:56:07;101254.70;;;1.78;79.92
55044;BME280;54902;50.420;18.854;2023-04-07T02:56:38;101242.10;;;1.78;79.88
55044;BME280;54902;50.420;18.854;2023-04-07T02:57:09;101245.70;;;1.79;79.83
55044;BME280;54902;50.420;18.854;2023-04-07T02:57:40;101243.01;;;1.79;79.90
55044;BME280;54902;50.420;18.854;2023-04-07T02:58:11;101247.49;;;1.78;79.87
55044;BME280;54902;50.420;18.854;2023-04-07T02:58:42;101243.01;;;1.79;79.88
55044;BME280;54902;50.420;18.854;2023-04-07T02:59:13;101243.88;;;1.79;79.85